Time;durP1;ratioP1;P1;durP2;ratioP2;P2;SDS_P1;SDS_P2;PMS_P1;PMS_P2;Temp;Humidity;BMP_temperature;BMP_pressure;BME280_temperature;BME280_humidity;BME280_pressure;Samples;Min_cycle;Max_cycle;Signal;HPM_P1;HPM_P2
2024/02/22 00:01:02;;;;;;;20.42;8.75;;;7.10;99.90;;;;;;5062920;28;20531;-71
2024/02/22 00:03:27;;;;;;;24.70;9.00;;;7.20;99.90;;;;;;5063218;28;20086;-72
2024/02/22 00:05:53;;;;;;;20.65;8.95;;;7.20;99.90;;;;;;5061773;28;20108;-70
2024/02/22 00:08:19;;;;;;;24.67;9.45;;;7.20;99.90;;;;;;5061815;28;20049;-70
2024/02/22 00:10:45;;;;;;;30.30;11.02;;;7.20;99.90;;;;;;5058435;28;20061;-71
2024/02/22 00:13:11;;;;;;;28.33;10.50;;;7.20;99.90;;;;;;5063384;28;20025;-72
2024/02/22 00:15:37;;;;;;;28.05;9.45;;;7.20;99.90;;;;;;5063148;28;20462;-69
2024/02/22 00:18:04;;;;;;;29.00;11.15;;;7.20;99.90;;;;;;5061433;28;20028;-72
2024/02/22 00:20:30;;;;;;;25.02;11.13;;;7.20;99.90;;;;;;5062175;28;20025;-70
2024/02/22 00:22:57;;;;;;;35.30;11.35;;;7.10;99.90;;;;;;5061217;28;20035;-72
2024/02/22 00:25:23;;;;;;;29.00;10.63;;;7.30;99.90;;;;;;5061381;28;20013;-71
2024/02/22 00:27:49;;;;;;;26.92;12.25;;;7.30;99.90;;;;;;5063060;28;20013;-71
2024/02/22 00:30:15;;;;;;;30.23;11.50;;;7.30;99.90;;;;;;5061677;28;20060;-71
2024/02/22 00:32:44;;;;;;;30.75;10.75;;;7.20;99.90;;;;;;5061336;28;20049;-69
2024/02/22 00:35:12;;;;;;;25.58;10.88;;;7.30;99.90;;;;;;5061921;28;20048;-73
2024/02/22 00:37:38;;;;;;;36.92;13.25;;;7.30;99.90;;;;;;5062515;28;20025;-70
2024/02/22 00:40:04;;;;;;;29.67;12.65;;;7.30;99.90;;;;;;5062340;28;20033;-70
2024/02/22 00:42:33;;;;;;;30.75;12.35;;;7.30;99.90;;;;;;5062281;28;20075;-71
2024/02/22 00:44:59;;;;;;;30.15;11.57;;;7.30;99.90;;;;;;5061802;28;20017;-71
2024/02/22 00:47:25;;;;;;;27.20;11.60;;;7.30;99.90;;;;;;5062485;28;20021;-70
2024/02/22 00:49:51;;;;;;;27.95;12.55;;;7.30;99.90;;;;;;5062477;28;20021;-71
2024/02/22 00:52:16;;;;;;;28.40;12.68;;;7.30;99.90;;;;;;5062479;28;20060;-71
2024/02/22 00:54:43;;;;;;;39.05;13.60;;;7.30;99.90;;;;;;5060947;28;20048;-70
2024/02/22 00:57:08;;;;;;;31.48;12.90;;;7.30;99.90;;;;;;5062016;28;20025;-69
2024/02/22 00:59:34;;;;;;;28.75;12.48;;;7.30;99.90;;;;;;5062169;28;20098;-71
2024/02/22 01:02:00;;;;;;;35.47;14.52;;;7.40;99.90;;;;;;5062157;28;20100;-71
2024/02/22 01:04:26;;;;;;;31.25;13.30;;;7.40;99.90;;;;;;5062292;28;20021;-71
2024/02/22 01:06:57;;;;;;;35.47;13.75;;;7.40;99.90;;;;;;5061546;28;20084;-70
2024/02/22 01:09:22;;;;;;;36.72;14.35;;;7.40;99.90;;;;;;5061510;28;20078;-69
2024/02/22 01:11:49;;;;;;;36.10;14.38;;;7.40;99.90;;;;;;5062334;28;20025;-71
2024/02/22 01:14:16;;;;;;;31.83;13.75;;;7.40;99.90;;;;;;5061320;28;20049;-71
2024/02/22 01:16:42;;;;;;;35.60;13.52;;;7.40;99.90;;;;;;5062049;28;20024;-71
2024/02/22 01:19:08;;;;;;;31.70;13.98;;;7.40;99.90;;;;;;5062103;28;20025;-71
2024/02/22 01:21:34;;;;;;;26.67;12.65;;;7.50;99.90;;;;;;5060345;28;20032;-68
2024/02/22 01:24:00;;;;;;;30.90;13.88;;;7.40;99.90;;;;;;5060476;28;20466;-72
2024/02/22 01:26:25;;;;;;;38.25;15.07;;;7.50;99.90;;;;;;5061209;28;20040;-70
2024/02/22 01:28:51;;;;;;;34.45;14.07;;;7.50;99.90;;;;;;5061446;28;20045;-72
2024/02/22 01:31:16;;;;;;;37.33;15.00;;;7.50;99.90;;;;;;5062126;28;20086;-71
2024/02/22 01:33:44;;;;;;;36.85;16.27;;;7.50;99.90;;;;;;5060593;28;20025;-69
2024/02/22 01:36:11;;;;;;;40.60;16.02;;;7.50;99.90;;;;;;5060101;28;20021;-69
2024/02/22 01:38:37;;;;;;;36.13;14.30;;;7.50;99.90;;;;;;5059814;28;20040;-70
2024/02/22 01:41:02;;;;;;;32.42;14.07;;;7.50;99.90;;;;;;5061155;28;20021;-70
2024/02/22 01:43:28;;;;;;;34.10;15.98;;;7.50;99.90;;;;;;5060899;28;20021;-72
2024/02/22 01:45:56;;;;;;;30.35;13.15;;;7.50;99.90;;;;;;5059792;28;20029;-72
2024/02/22 01:48:22;;;;;;;44.28;16.75;;;7.50;99.90;;;;;;5060959;28;20020;-71
2024/02/22 01:50:52;;;;;;;37.83;15.68;;;7.60;99.90;;;;;;5059667;28;20025;-75
2024/02/22 01:53:23;;;;;;;39.95;16.38;;;7.60;99.90;;;;;;5059470;28;20017;-73
2024/02/22 01:55:52;;;;;;;36.00;14.65;;;7.60;99.90;;;;;;5060461;28;20048;-71
2024/02/22 01:58:18;;;;;;;47.70;18.83;;;7.50;99.90;;;;;;5060869;28;20029;-70
2024/02/22 02:00:45;;;;;;;53.35;19.05;;;7.60;99.90;;;;;;5060625;28;20025;-72
2024/02/22 02:03:10;;;;;;;42.40;17.05;;;7.60;99.90;;;;;;5060509;28;20561;-71
2024/02/22 02:05:36;;;;;;;41.42;18.05;;;7.60;99.90;;;;;;5060976;28;20094;-69
2024/02/22 02:08:02;;;;;;;40.83;17.67;;;7.60;99.90;;;;;;5060448;28;20474;-70
2024/02/22 02:10:28;;;;;;;55.90;21.58;;;7.60;99.90;;;;;;5059102;28;20036;-71
2024/02/22 02:13:02;;;;;;;42.28;17.70;;;7.60;99.90;;;;;;5059289;28;20534;-71
2024/02/22 02:15:27;;;;;;;46.80;19.10;;;7.60;99.90;;;;;;5060302;28;20393;-71
2024/02/22 02:17:53;;;;;;;44.78;19.27;;;7.60;99.90;;;;;;5060013;28;20029;-72
2024/02/22 02:20:24;;;;;;;48.13;19.58;;;7.70;99.90;;;;;;5061080;28;20046;-72
2024/02/22 02:23:05;;;;;;;46.53;19.25;;;7.70;99.90;;;;;;5058450;28;20048;-71
2024/02/22 02:25:32;;;;;;;56.55;20.20;;;7.70;99.90;;;;;;5061198;28;20025;-69
2024/02/22 02:27:58;;;;;;;45.83;18.48;;;7.60;99.90;;;;;;5059921;28;20021;-70
2024/02/22 02:30:23;;;;;;;55.67;20.23;;;7.70;99.90;;;;;;5061043;28;20041;-72
2024/02/22 02:32:49;;;;;;;48.65;19.73;;;7.70;99.90;;;;;;5061140;28;20043;-72
2024/02/22 02:35:14;;;;;;;46.15;19.95;;;7.70;99.90;;;;;;5061170;28;20037;-71
2024/02/22 02:37:40;;;;;;;53.63;20.73;;;7.70;99.90;;;;;;5061036;28;20070;-71
2024/02/22 02:40:06;;;;;;;51.47;19.90;;;7.70;99.90;;;;;;5060964;28;20039;-71
2024/02/22 02:42:32;;;;;;;52.67;20.77;;;7.70;99.90;;;;;;5060905;28;20029;-71
2024/02/22 02:44:57;;;;;;;59.42;22.00;;;7.70;99.90;;;;;;5064874;28;20016;-71
2024/02/22 02:47:23;;;;;;;57.72;21.23;;;7.70;99.90;;;;;;5064668;28;20031;-69
2024/02/22 02:49:49;;;;;;;56.58;21.13;;;7.80;99.90;;;;;;5063621;28;20025;-71
2024/02/22 02:52:15;;;;;;;72.40;24.35;;;7.80;99.90;;;;;;5064783;28;20024;-72
2024/02/22 02:54:40;;;;;;;65.60;22.58;;;7.80;99.90;;;;;;5063771;28;20044;-70
2024/02/22 02:57:06;;;;;;;59.35;22.00;;;7.80;99.90;;;;;;5063339;28;20090;-72
2024/02/22 02:59:31;;;;;;;53.17;21.10;;;7.80;99.90;;;;;;5064414;28;20056;-72
2024/02/22 03:01:57;;;;;;;55.50;21.92;;;7.80;99.90;;;;;;5064408;28;20119;-72
2024/02/22 03:04:22;;;;;;;64.90;23.23;;;7.80;99.90;;;;;;5063297;28;20021;-70
2024/02/22 03:06:48;;;;;;;71.78;24.65;;;7.80;99.90;;;;;;5062810;28;20370;-72
2024/02/22 03:09:14;;;;;;;61.65;21.67;;;7.90;99.90;;;;;;5061587;28;20033;-71
2024/02/22 03:11:40;;;;;;;68.05;24.98;;;7.90;99.90;;;;;;5063130;28;20048;-73
2024/02/22 03:14:06;;;;;;;64.20;25.23;;;7.90;99.90;;;;;;5063890;28;20067;-69
2024/02/22 03:16:32;;;;;;;71.18;25.70;;;7.90;99.90;;;;;;5064252;28;20017;-70
2024/02/22 03:18:58;;;;;;;65.13;22.38;;;7.90;99.90;;;;;;5062732;28;20013;-69
2024/02/22 03:21:24;;;;;;;65.28;22.80;;;7.90;99.90;;;;;;5063963;28;20029;-71
2024/02/22 03:23:49;;;;;;;69.93;24.80;;;7.90;99.90;;;;;;5064251;28;20032;-70
2024/02/22 03:26:16;;;;;;;73.38;25.27;;;7.90;99.90;;;;;;5064401;28;20021;-72
2024/02/22 03:28:42;;;;;;;69.18;23.15;;;7.90;99.90;;;;;;5063961;28;20029;-70
2024/02/22 03:31:08;;;;;;;69.13;23.38;;;8.00;99.90;;;;;;5062695;28;20029;-70
2024/02/22 03:33:34;;;;;;;67.70;24.25;;;7.90;99.90;;;;;;5063693;28;20081;-72
2024/02/22 03:36:00;;;;;;;65.57;24.13;;;7.90;99.90;;;;;;5063568;28;20029;-71
2024/02/22 03:38:26;;;;;;;86.63;27.73;;;8.00;99.90;;;;;;5063923;28;20555;-71
2024/02/22 03:40:53;;;;;;;76.85;26.73;;;8.00;99.90;;;;;;5063593;28;20028;-71
2024/02/22 03:43:19;;;;;;;74.18;25.88;;;8.00;99.90;;;;;;5063592;28;20024;-70
2024/02/22 03:45:45;;;;;;;96.30;26.80;;;8.00;99.90;;;;;;5064045;28;20036;-69
2024/02/22 03:48:11;;;;;;;94.00;28.65;;;8.00;99.90;;;;;;5063622;28;20111;-71
2024/02/22 03:50:36;;;;;;;88.82;28.02;;;8.00;99.90;;;;;;5062297;28;20029;-70
2024/02/22 03:53:02;;;;;;;94.60;28.27;;;8.00;99.90;;;;;;5063145;28;20017;-71
2024/02/22 03:55:30;;;;;;;91.35;25.80;;;8.00;99.90;;;;;;5062250;28;20159;-70
2024/02/22 03:57:56;;;;;;;86.75;26.20;;;8.00;99.90;;;;;;5063397;28;20025;-72
2024/02/22 04:00:21;;;;;;;95.50;26.42;;;8.00;99.90;;;;;;5063571;28;20071;-70
2024/02/22 04:02:48;;;;;;;99.85;27.30;;;8.00;99.90;;;;;;5060808;28;20024;-71
2024/02/22 04:05:14;;;;;;;76.28;24.02;;;8.10;99.90;;;;;;5062086;28;20029;-71
2024/02/22 04:07:42;;;;;;;92.07;27.10;;;8.10;99.90;;;;;;5062810;28;20107;-71
2024/02/22 04:10:09;;;;;;;98.57;29.30;;;8.10;99.90;;;;;;5062911;28;20020;-73
2024/02/22 04:12:34;;;;;;;106.18;28.60;;;8.10;99.90;;;;;;5062034;28;20053;-71
2024/02/22 04:15:00;;;;;;;106.45;28.77;;;8.10;99.90;;;;;;5063099;28;20036;-70
2024/02/22 04:17:26;;;;;;;111.50;29.50;;;8.10;99.90;;;;;;5062787;28;20051;-70
2024/02/22 04:19:55;;;;;;;111.25;30.10;;;8.10;99.90;;;;;;5063144;28;20084;-71
2024/02/22 04:22:20;;;;;;;125.63;31.98;;;8.10;99.90;;;;;;5062829;28;20071;-72
2024/02/22 04:24:46;;;;;;;107.22;31.45;;;8.20;99.90;;;;;;5063096;28;20029;-70
2024/02/22 04:27:12;;;;;;;128.73;31.45;;;8.10;99.90;;;;;;5063038;28;20029;-71
2024/02/22 04:29:37;;;;;;;110.38;29.77;;;8.20;99.90;;;;;;5061383;28;20043;-72
2024/02/22 04:32:03;;;;;;;122.53;31.23;;;8.20;99.90;;;;;;5062749;28;20482;-70
2024/02/22 04:34:29;;;;;;;139.02;32.90;;;8.20;99.90;;;;;;5062369;28;20059;-70
2024/02/22 04:36:55;;;;;;;115.13;28.63;;;8.20;99.90;;;;;;5062324;28;20029;-73
2024/02/22 04:39:20;;;;;;;171.98;34.67;;;8.30;99.90;;;;;;5061539;28;20056;-70
2024/02/22 04:41:46;;;;;;;114.55;30.45;;;8.20;99.90;;;;;;5063133;28;20043;-70
2024/02/22 04:44:12;;;;;;;114.55;31.42;;;8.30;99.90;;;;;;5062419;28;20036;-69
2024/02/22 04:46:37;;;;;;;132.52;32.03;;;8.30;99.90;;;;;;5062569;28;20064;-70
2024/02/22 04:49:04;;;;;;;118.38;30.30;;;8.20;99.90;;;;;;5062215;28;20385;-72
2024/02/22 04:51:33;;;;;;;112.38;28.30;;;8.30;99.90;;;;;;5062285;28;20462;-70
2024/02/22 04:54:01;;;;;;;112.80;28.60;;;8.30;99.90;;;;;;5062042;28;20032;-71
2024/02/22 04:56:28;;;;;;;86.03;25.65;;;8.30;99.90;;;;;;5060540;28;20036;-72
2024/02/22 04:58:55;;;;;;;93.15;26.95;;;8.30;99.90;;;;;;5060445;28;20469;-69
2024/02/22 05:01:21;;;;;;;76.55;23.42;;;8.30;99.90;;;;;;5060285;28;20032;-71
2024/02/22 05:03:48;;;;;;;73.05;22.73;;;8.40;99.90;;;;;;5060656;28;20021;-70
2024/02/22 05:06:13;;;;;;;75.18;23.02;;;8.40;99.90;;;;;;5058234;28;20051;-72
2024/02/22 05:08:39;;;;;;;68.68;21.70;;;8.40;99.90;;;;;;5060599;28;20041;-71
2024/02/22 05:11:07;;;;;;;62.45;19.70;;;8.40;99.90;;;;;;5062141;28;20057;-71
2024/02/22 05:13:32;;;;;;;73.13;21.27;;;8.40;99.90;;;;;;5060542;28;20017;-70
2024/02/22 05:15:58;;;;;;;65.93;20.35;;;8.40;99.90;;;;;;5062108;28;20039;-69
2024/02/22 05:18:23;;;;;;;75.88;20.63;;;8.40;99.90;;;;;;5061709;28;20040;-68
2024/02/22 05:20:50;;;;;;;61.33;18.27;;;8.40;99.90;;;;;;5062005;28;20088;-70
2024/02/22 05:23:15;;;;;;;66.20;18.65;;;8.40;99.90;;;;;;5060332;28;20449;-69
2024/02/22 05:25:41;;;;;;;66.65;18.65;;;8.50;99.90;;;;;;5059181;28;20032;-69
2024/02/22 05:28:08;;;;;;;62.70;18.27;;;8.50;99.90;;;;;;5058794;28;20029;-70
2024/02/22 05:30:34;;;;;;;62.15;17.80;;;8.50;99.90;;;;;;5060005;28;20432;-70
2024/02/22 05:32:59;;;;;;;56.92;17.33;;;8.50;99.90;;;;;;5055388;28;20032;-71
2024/02/22 05:35:25;;;;;;;61.25;18.08;;;8.50;99.90;;;;;;5058969;28;20124;-70
2024/02/22 05:37:51;;;;;;;61.78;18.00;;;8.50;99.90;;;;;;5060565;28;20021;-69
2024/02/22 05:40:16;;;;;;;59.08;17.20;;;8.50;99.90;;;;;;5059270;28;20032;-71
2024/02/22 05:42:43;;;;;;;53.40;17.33;;;8.50;99.90;;;;;;5058681;28;20461;-70
2024/02/22 05:45:09;;;;;;;57.25;17.17;;;8.50;99.90;;;;;;5057292;28;20028;-70
2024/02/22 05:47:34;;;;;;;58.55;17.45;;;8.60;99.90;;;;;;5060840;28;20033;-68
2024/02/22 05:50:00;;;;;;;57.03;17.13;;;8.60;99.90;;;;;;5061379;28;20021;-69
2024/02/22 05:52:26;;;;;;;59.35;17.45;;;8.60;99.90;;;;;;5061451;28;20082;-70
2024/02/22 05:54:53;;;;;;;58.47;18.23;;;8.60;99.90;;;;;;5060929;28;20068;-71
2024/02/22 05:57:18;;;;;;;59.35;16.83;;;8.60;99.90;;;;;;5061183;28;20024;-71
2024/02/22 05:59:44;;;;;;;68.03;18.85;;;8.60;99.90;;;;;;5059181;28;20025;-71
2024/02/22 06:02:10;;;;;;;75.15;19.58;;;8.60;99.90;;;;;;5060310;28;20024;-69
2024/02/22 06:04:35;;;;;;;77.20;19.83;;;8.60;99.90;;;;;;5059294;28;20029;-71
2024/02/22 06:07:01;;;;;;;64.35;18.40;;;8.60;99.90;;;;;;5056883;28;21022;-69
2024/02/22 06:09:27;;;;;;;67.85;20.00;;;8.60;99.90;;;;;;5058819;28;20057;-69
2024/02/22 06:11:53;;;;;;;75.43;20.92;;;8.70;99.90;;;;;;5056395;28;20033;-69
2024/02/22 06:14:21;;;;;;;87.90;23.23;;;8.70;99.90;;;;;;5056904;28;20067;-69
2024/02/22 06:16:47;;;;;;;79.65;21.65;;;8.70;99.90;;;;;;5056294;28;21607;-69
2024/02/22 06:19:12;;;;;;;110.30;25.38;;;8.70;99.90;;;;;;5063461;28;20025;-70
2024/02/22 06:21:38;;;;;;;92.80;21.83;;;8.70;99.90;;;;;;5063368;28;20040;-69
2024/02/22 06:24:07;;;;;;;86.72;23.25;;;8.70;99.90;;;;;;5063268;28;20079;-70
2024/02/22 06:26:33;;;;;;;99.00;23.30;;;8.70;99.90;;;;;;5063757;28;20025;-69
2024/02/22 06:28:59;;;;;;;92.35;22.52;;;8.70;99.90;;;;;;5062062;28;20045;-70
2024/02/22 06:31:25;;;;;;;98.65;23.15;;;8.70;99.90;;;;;;5062459;28;20029;-69
2024/02/22 06:33:52;;;;;;;87.38;23.20;;;8.70;99.90;;;;;;5063713;28;20474;-71
2024/02/22 06:36:18;;;;;;;95.07;22.40;;;8.80;99.90;;;;;;5057490;28;20059;-69
2024/02/22 06:38:45;;;;;;;98.63;22.92;;;8.80;99.90;;;;;;5059183;28;20025;-73
2024/02/22 06:41:11;;;;;;;92.22;21.48;;;8.80;99.90;;;;;;5063628;28;20427;-72
2024/02/22 06:43:37;;;;;;;96.38;22.40;;;8.80;99.90;;;;;;5063362;28;20028;-72
2024/02/22 06:46:03;;;;;;;115.85;24.17;;;8.80;99.90;;;;;;5063605;28;20102;-70
2024/02/22 06:48:29;;;;;;;113.13;23.67;;;8.80;99.90;;;;;;5063398;28;20017;-70
2024/02/22 06:50:56;;;;;;;135.60;26.25;;;8.80;99.90;;;;;;5063367;28;20093;-70
2024/02/22 06:53:21;;;;;;;115.75;24.00;;;8.80;99.90;;;;;;5064140;28;20029;-71
2024/02/22 06:55:47;;;;;;;126.72;24.17;;;8.80;99.90;;;;;;5064294;28;20057;-70
2024/02/22 06:58:13;;;;;;;107.80;23.20;;;8.80;99.90;;;;;;5063353;28;20047;-71
2024/02/22 07:00:38;;;;;;;130.38;25.73;;;8.90;99.90;;;;;;5063335;28;20021;-70
2024/02/22 07:03:04;;;;;;;91.30;21.38;;;8.90;99.90;;;;;;5064169;28;20021;-69
2024/02/22 07:05:29;;;;;;;102.05;22.30;;;8.90;99.90;;;;;;5064742;28;20690;-68
2024/02/22 07:07:55;;;;;;;118.55;23.70;;;8.90;99.90;;;;;;5063773;28;20048;-70
2024/02/22 07:10:21;;;;;;;109.03;22.95;;;8.90;99.90;;;;;;5064222;28;20021;-69
2024/02/22 07:12:47;;;;;;;116.25;24.20;;;8.90;99.90;;;;;;5064435;28;20033;-71
2024/02/22 07:15:15;;;;;;;105.03;21.98;;;8.90;99.90;;;;;;5063129;28;20040;-71
2024/02/22 07:17:40;;;;;;;105.63;23.38;;;9.00;99.90;;;;;;5063495;28;20488;-71
2024/02/22 07:20:06;;;;;;;104.72;23.10;;;9.00;99.90;;;;;;5064381;28;20025;-70
2024/02/22 07:22:32;;;;;;;126.75;24.45;;;9.00;99.90;;;;;;5063014;28;20021;-72
2024/02/22 07:24:58;;;;;;;103.20;22.40;;;9.00;99.90;;;;;;5052499;28;20052;-69
2024/02/22 07:27:25;;;;;;;143.80;27.90;;;9.00;99.90;;;;;;5064301;28;20115;-69
2024/02/22 07:29:50;;;;;;;163.23;29.73;;;9.00;99.90;;;;;;5062628;28;20055;-71
2024/02/22 07:32:16;;;;;;;156.73;29.40;;;9.10;99.90;;;;;;5063406;28;20047;-71
2024/02/22 07:34:41;;;;;;;137.95;27.00;;;9.10;99.90;;;;;;5060701;28;20048;-70
2024/02/22 07:37:07;;;;;;;157.77;29.15;;;9.10;99.90;;;;;;5061977;28;20021;-69
2024/02/22 07:39:33;;;;;;;134.05;27.13;;;9.10;99.90;;;;;;5063077;28;20029;-69
2024/02/22 07:41:58;;;;;;;163.05;29.75;;;9.10;99.90;;;;;;5063442;28;20055;-69
2024/02/22 07:44:24;;;;;;;151.15;30.30;;;9.10;99.90;;;;;;5062147;28;20021;-71
2024/02/22 07:46:51;;;;;;;152.98;28.25;;;9.10;99.90;;;;;;5063957;28;20021;-69
2024/02/22 07:49:17;;;;;;;148.60;29.52;;;9.10;99.90;;;;;;5061357;28;20032;-67
2024/02/22 07:51:42;;;;;;;145.43;29.48;;;9.10;99.90;;;;;;5062809;28;20398;-73
2024/02/22 07:54:08;;;;;;;161.07;31.63;;;9.10;99.90;;;;;;5062690;28;20025;-68
2024/02/22 07:56:39;;;;;;;141.00;29.92;;;9.20;99.90;;;;;;5061399;28;20029;-72
2024/02/22 07:59:05;;;;;;;168.30;32.35;;;9.20;99.90;;;;;;5060144;28;20047;-70
2024/02/22 08:01:30;;;;;;;133.50;28.05;;;9.20;99.90;;;;;;5061234;28;20025;-70
2024/02/22 08:03:56;;;;;;;150.70;30.73;;;9.20;99.90;;;;;;5060092;28;20116;-70
2024/02/22 08:06:21;;;;;;;173.63;31.42;;;9.30;99.90;;;;;;5062117;28;20385;-71
2024/02/22 08:08:47;;;;;;;134.25;29.55;;;9.20;99.90;;;;;;5061045;28;20064;-70
2024/02/22 08:11:12;;;;;;;147.43;29.42;;;9.20;99.90;;;;;;5061901;28;20056;-70
2024/02/22 08:13:38;;;;;;;154.15;29.08;;;9.30;99.90;;;;;;5063168;28;20070;-70
2024/02/22 08:16:05;;;;;;;176.27;31.42;;;9.30;99.90;;;;;;5063033;28;20542;-71
2024/02/22 08:18:35;;;;;;;168.10;31.98;;;9.30;99.90;;;;;;5058519;28;20029;-70
2024/02/22 08:21:01;;;;;;;148.73;30.02;;;9.30;99.90;;;;;;5061078;28;20074;-70
2024/02/22 08:23:27;;;;;;;156.88;30.83;;;9.30;99.90;;;;;;5059509;28;20032;-72
2024/02/22 08:25:54;;;;;;;176.18;33.88;;;9.30;99.90;;;;;;5061045;28;20124;-69
2024/02/22 08:28:20;;;;;;;163.80;33.13;;;9.30;99.90;;;;;;5059813;28;20494;-69
2024/02/22 08:30:45;;;;;;;148.55;30.63;;;9.40;99.90;;;;;;5062350;28;20025;-71
2024/02/22 08:33:12;;;;;;;124.75;27.67;;;9.40;99.90;;;;;;5062721;28;20040;-70
2024/02/22 08:35:38;;;;;;;145.30;29.23;;;9.40;99.90;;;;;;5062763;28;20113;-71
2024/02/22 08:38:03;;;;;;;124.63;28.45;;;9.40;99.90;;;;;;5062559;28;20033;-73
2024/02/22 08:40:29;;;;;;;104.30;23.90;;;9.40;99.90;;;;;;5061905;28;20501;-69
2024/02/22 08:42:54;;;;;;;92.00;23.05;;;9.50;99.90;;;;;;5060301;28;20025;-70
2024/02/22 08:45:20;;;;;;;83.53;21.65;;;9.50;99.90;;;;;;5060132;28;20033;-70
2024/02/22 08:47:46;;;;;;;84.40;21.60;;;9.60;99.90;;;;;;5060382;28;20033;-72
2024/02/22 08:50:15;;;;;;;85.30;20.88;;;9.60;99.90;;;;;;5062621;28;20090;-70
2024/02/22 08:52:43;;;;;;;88.07;21.05;;;9.60;99.90;;;;;;5061844;28;20053;-70
2024/02/22 08:55:11;;;;;;;98.38;23.63;;;9.70;99.90;;;;;;5060594;28;20591;-71
2024/02/22 08:57:37;;;;;;;81.35;20.63;;;9.70;99.90;;;;;;5058243;28;20032;-71
2024/02/22 09:00:04;;;;;;;48.90;14.35;;;9.90;99.90;;;;;;5061117;28;20064;-71
2024/02/22 09:02:30;;;;;;;56.65;15.95;;;10.00;99.90;;;;;;5059089;28;20021;-72
2024/02/22 09:04:55;;;;;;;46.30;13.68;;;10.10;99.90;;;;;;5061257;28;20036;-70
2024/02/22 09:07:21;;;;;;;49.50;14.63;;;10.10;99.90;;;;;;5062013;28;20062;-71
2024/02/22 09:09:48;;;;;;;50.63;14.23;;;10.10;99.90;;;;;;5060956;28;20083;-71
2024/02/22 09:12:14;;;;;;;57.80;14.73;;;10.10;99.90;;;;;;5061169;28;20017;-71
2024/02/22 09:14:39;;;;;;;59.03;15.73;;;10.10;99.90;;;;;;5059956;28;20029;-70
2024/02/22 09:17:05;;;;;;;59.08;17.50;;;10.10;99.90;;;;;;5059990;28;20032;-70
2024/02/22 09:19:31;;;;;;;55.60;17.13;;;10.20;99.90;;;;;;5061374;28;20025;-70
2024/02/22 09:21:59;;;;;;;72.15;18.23;;;10.20;99.90;;;;;;5060738;28;20051;-70
2024/02/22 09:24:25;;;;;;;66.63;18.73;;;10.20;99.90;;;;;;5060436;28;20032;-71
2024/02/22 09:26:50;;;;;;;69.93;19.23;;;10.20;99.90;;;;;;5059365;28;20025;-70
2024/02/22 09:29:16;;;;;;;70.78;20.17;;;10.20;99.90;;;;;;5059465;28;20501;-70
2024/02/22 09:31:42;;;;;;;64.57;17.98;;;10.20;99.90;;;;;;5054114;28;20031;-71
2024/02/22 09:34:07;;;;;;;73.68;21.38;;;10.20;99.90;;;;;;5057029;28;20530;-70
2024/02/22 09:36:33;;;;;;;78.82;21.90;;;10.20;99.90;;;;;;5059891;28;20123;-69
2024/02/22 09:38:58;;;;;;;79.35;23.00;;;10.20;99.90;;;;;;5058061;28;20036;-69
2024/02/22 09:41:25;;;;;;;79.88;22.13;;;10.20;99.90;;;;;;5057998;28;20021;-68
2024/02/22 09:43:51;;;;;;;81.07;21.77;;;10.20;99.90;;;;;;5058841;28;20111;-71
2024/02/22 09:46:18;;;;;;;77.93;23.17;;;10.20;99.90;;;;;;5061104;28;20097;-70
2024/02/22 09:48:44;;;;;;;83.60;23.13;;;10.30;99.90;;;;;;5060150;28;20171;-68
2024/02/22 09:51:12;;;;;;;78.70;24.10;;;10.30;99.90;;;;;;5047905;28;20072;-68
2024/02/22 09:53:38;;;;;;;81.45;24.90;;;10.50;99.90;;;;;;5056757;28;20033;-68
2024/02/22 09:56:04;;;;;;;76.25;24.33;;;10.60;99.90;;;;;;5056551;28;20048;-69
2024/02/22 09:58:30;;;;;;;66.45;21.98;;;10.90;99.90;;;;;;5058992;28;20108;-70
2024/02/22 10:00:56;;;;;;;66.03;23.90;;;11.20;99.90;;;;;;5058867;28;20029;-71
2024/02/22 10:03:34;;;;;;;65.43;23.10;;;11.40;99.90;;;;;;5060410;28;20120;-69
2024/02/22 10:06:00;;;;;;;58.95;22.55;;;11.50;99.90;;;;;;5059529;28;20054;-69
2024/02/22 10:08:26;;;;;;;50.78;20.60;;;11.50;99.90;;;;;;5021026;28;1117630;-68
2024/02/22 10:10:55;;;;;;;54.65;21.10;;;11.40;99.90;;;;;;5059970;28;20033;-69
2024/02/22 10:13:26;;;;;;;47.22;17.27;;;11.40;99.90;;;;;;5061134;28;20027;-69
2024/02/22 10:15:53;;;;;;;41.65;18.25;;;11.50;99.90;;;;;;5058413;28;20045;-69
2024/02/22 10:18:25;;;;;;;41.35;17.88;;;11.50;99.90;;;;;;5058954;28;20085;-69
2024/02/22 10:20:51;;;;;;;44.72;16.70;;;11.60;99.90;;;;;;5060075;28;20057;-69
2024/02/22 10:23:18;;;;;;;42.33;16.35;;;11.60;99.90;;;;;;5056016;28;20033;-71
2024/02/22 10:25:44;;;;;;;38.60;16.02;;;11.60;99.90;;;;;;5058546;28;20039;-66
2024/02/22 10:28:16;;;;;;;35.28;14.70;;;11.60;99.90;;;;;;5057427;28;20033;-69
2024/02/22 10:30:44;;;;;;;37.28;14.82;;;11.60;99.90;;;;;;5057307;28;20036;-68
2024/02/22 10:33:11;;;;;;;32.30;14.23;;;11.70;99.90;;;;;;5059616;28;20135;-68
2024/02/22 10:35:40;;;;;;;38.63;14.02;;;11.80;99.90;;;;;;5060850;28;20036;-69
2024/02/22 10:38:11;;;;;;;32.25;12.43;;;11.80;99.90;;;;;;5057772;28;20033;-72
2024/02/22 10:40:37;;;;;;;34.53;14.35;;;11.80;99.90;;;;;;5059908;28;20056;-68
2024/02/22 10:43:05;;;;;;;37.70;14.00;;;11.80;99.90;;;;;;5060912;28;20036;-70
2024/02/22 10:45:31;;;;;;;38.78;15.80;;;11.70;99.90;;;;;;5056306;28;20029;-68
2024/02/22 10:48:01;;;;;;;36.50;16.17;;;11.60;99.90;;;;;;5055971;28;20033;-68
2024/02/22 10:50:29;;;;;;;44.10;18.50;;;11.60;99.90;;;;;;5056630;28;20029;-69
2024/02/22 10:52:57;;;;;;;39.30;17.85;;;11.50;99.90;;;;;;5059517;28;20021;-69
2024/02/22 10:55:26;;;;;;;40.38;17.65;;;11.50;99.90;;;;;;5057714;28;20102;-68
2024/02/22 10:57:54;;;;;;;40.65;17.60;;;11.50;99.90;;;;;;5058158;28;20075;-68
2024/02/22 11:00:20;;;;;;;40.65;16.08;;;11.50;99.90;;;;;;5058403;28;20029;-68
2024/02/22 11:02:46;;;;;;;45.85;18.27;;;11.60;99.90;;;;;;5057910;28;20424;-70
2024/02/22 11:05:13;;;;;;;41.72;17.90;;;11.60;99.90;;;;;;5061806;28;20040;-71
2024/02/22 11:07:58;;;;;;;38.97;17.27;;;11.80;99.90;;;;;;5062103;28;20029;-67
2024/02/22 11:10:23;;;;;;;39.55;18.48;;;11.80;99.90;;;;;;5063272;28;20033;-69
2024/02/22 11:12:51;;;;;;;42.33;17.63;;;11.80;99.90;;;;;;5063347;28;20021;-69
2024/02/22 11:15:17;;;;;;;29.35;14.32;;;11.70;99.90;;;;;;5063916;28;20033;-69
2024/02/22 11:17:52;;;;;;;33.72;12.73;;;11.80;99.90;;;;;;5064375;28;20021;-71
2024/02/22 11:20:18;;;;;;;33.60;13.25;;;12.00;99.90;;;;;;5064241;28;20033;-68
2024/02/22 11:22:44;;;;;;;27.65;13.07;;;12.30;99.90;;;;;;5064417;28;20021;-69
2024/02/22 11:25:09;;;;;;;33.03;12.52;;;12.60;99.90;;;;;;5063970;28;20044;-70
2024/02/22 11:27:38;;;;;;;33.67;12.60;;;13.00;99.90;;;;;;5064225;28;20020;-68
2024/02/22 11:30:14;;;;;;;29.63;11.23;;;13.40;99.90;;;;;;5062493;28;20021;-71
2024/02/22 11:32:41;;;;;;;31.42;10.27;;;13.70;99.90;;;;;;5063994;28;20072;-72
2024/02/22 11:35:07;;;;;;;22.60;10.27;;;13.80;99.90;;;;;;5063275;28;20037;-71
2024/02/22 11:37:33;;;;;;;26.00;11.25;;;14.00;99.90;;;;;;5062924;28;20120;-69
2024/02/22 11:39:59;;;;;;;24.05;10.25;;;14.30;99.90;;;;;;5061777;28;20056;-71
2024/02/22 11:42:26;;;;;;;24.52;10.10;;;14.10;99.90;;;;;;5054137;28;20028;-69
2024/02/22 11:44:53;;;;;;;20.42;10.45;;;14.00;99.90;;;;;;5060769;28;20465;-70
2024/02/22 11:47:18;;;;;;;24.10;9.82;;;13.80;99.90;;;;;;5054958;28;20476;-73
2024/02/22 11:49:44;;;;;;;30.95;10.95;;;13.50;99.90;;;;;;5061939;28;20128;-70
2024/02/22 11:52:12;;;;;;;24.80;9.68;;;13.40;99.90;;;;;;5061670;28;20056;-70
2024/02/22 11:54:39;;;;;;;26.20;10.90;;;13.30;99.90;;;;;;5058983;28;20033;-69
2024/02/22 11:57:07;;;;;;;23.90;10.48;;;13.20;99.90;;;;;;5062128;28;20103;-68
2024/02/22 11:59:34;;;;;;;22.98;10.43;;;13.10;99.90;;;;;;5061724;28;20033;-68
2024/02/22 12:02:01;;;;;;;19.90;9.13;;;13.00;99.90;;;;;;5057664;28;20028;-72
2024/02/22 12:04:30;;;;;;;23.15;8.73;;;13.00;99.90;;;;;;5062390;28;20039;-71
2024/02/22 12:06:57;;;;;;;19.17;9.50;;;12.90;99.90;;;;;;5060646;28;20164;-69
2024/02/22 12:09:23;;;;;;;25.70;8.95;;;12.80;99.90;;;;;;5059560;28;20623;-71
2024/02/22 12:11:49;;;;;;;23.60;8.40;;;12.70;99.90;;;;;;5059517;28;20024;-69
2024/02/22 12:14:14;;;;;;;28.35;9.32;;;12.60;99.90;;;;;;5061044;28;20036;-68
2024/02/22 12:16:40;;;;;;;24.92;9.63;;;12.50;99.90;;;;;;5060040;28;20488;-69
2024/02/22 12:19:06;;;;;;;22.02;8.75;;;12.50;99.90;;;;;;5061994;28;20033;-68
2024/02/22 12:21:36;;;;;;;22.90;10.02;;;12.40;99.90;;;;;;5058503;28;20031;-68
2024/02/22 12:24:02;;;;;;;22.02;9.10;;;12.40;99.90;;;;;;5056837;28;20029;-69
2024/02/22 12:26:28;;;;;;;20.38;9.02;;;12.40;99.90;;;;;;5061076;28;20021;-68
2024/02/22 12:28:54;;;;;;;19.63;8.07;;;12.30;99.90;;;;;;5060138;28;20393;-69